Time;durP1;ratioP1;P1;durP2;ratioP2;P2;SDS_P1;SDS_P2;PMS_P1;PMS_P2;Temp;Humidity;BMP_temperature;BMP_pressure;BME280_temperature;BME280_humidity;BME280_pressure;Samples;Min_cycle;Max_cycle;Signal;HPM_P1;HPM_P2
2022/07/14 00:00:30;;;;;;;1.20;0.80;;;;;;;28.42;37.56;99547.69;5100193;28;20039;-65
2022/07/14 00:02:56;;;;;;;1.20;0.90;;;;;;;28.38;37.95;99547.75;5096788;28;20047;-65
2022/07/14 00:05:21;;;;;;;1.42;0.90;;;;;;;28.41;37.87;99554.53;5101349;28;20059;-58
2022/07/14 00:07:47;;;;;;;1.20;0.80;;;;;;;28.41;37.86;99551.72;5092078;28;20419;-59
2022/07/14 00:10:13;;;;;;;1.40;0.90;;;;;;;28.37;37.48;99546.16;5105259;28;20127;-58
2022/07/14 00:12:38;;;;;;;1.70;0.98;;;;;;;28.38;37.64;99553.38;5102817;28;20442;-58
2022/07/14 00:15:04;;;;;;;1.10;0.70;;;;;;;28.36;37.62;99553.03;5097947;28;20039;-64
2022/07/14 00:17:30;;;;;;;1.10;0.80;;;;;;;28.37;37.66;99548.97;5093845;28;20039;-65
2022/07/14 00:19:55;;;;;;;1.25;0.93;;;;;;;28.37;37.63;99557.44;5094167;28;20514;-64
2022/07/14 00:22:21;;;;;;;1.40;1.00;;;;;;;28.36;37.72;99555.00;5092970;28;20059;-64
2022/07/14 00:24:47;;;;;;;1.10;0.80;;;;;;;28.32;37.65;99560.69;5094525;28;20032;-64
2022/07/14 00:27:12;;;;;;;1.00;0.88;;;;;;;28.32;37.56;99559.91;5102440;28;20051;-65
2022/07/14 00:29:38;;;;;;;0.98;0.77;;;;;;;28.33;37.48;99559.47;5101130;28;20036;-65
2022/07/14 00:32:06;;;;;;;1.08;0.70;;;;;;;28.34;37.50;99563.09;5091747;28;20428;-64
2022/07/14 00:34:32;;;;;;;1.25;0.90;;;;;;;28.31;37.49;99558.31;5092455;28;20052;-59
2022/07/14 00:36:58;;;;;;;0.90;0.80;;;;;;;28.33;37.44;99561.50;5102081;28;20050;-59
2022/07/14 00:39:24;;;;;;;1.05;0.77;;;;;;;28.33;37.58;99559.47;5101852;28;20056;-64
2022/07/14 00:41:49;;;;;;;1.13;0.70;;;;;;;28.31;37.51;99559.13;5100200;28;20043;-64
2022/07/14 00:44:15;;;;;;;0.75;0.60;;;;;;;28.32;37.54;99559.91;5107347;28;20051;-64
2022/07/14 00:46:40;;;;;;;1.10;0.80;;;;;;;28.28;37.66;99559.91;5095229;28;20050;-59
2022/07/14 00:49:06;;;;;;;1.35;1.00;;;;;;;28.29;37.56;99561.53;5096343;28;20036;-57
2022/07/14 00:51:32;;;;;;;1.27;0.90;;;;;;;28.32;37.71;99571.97;5100400;28;20063;-64
2022/07/14 00:53:57;;;;;;;1.23;0.80;;;;;;;28.32;37.67;99566.31;5110048;28;20043;-58
2022/07/14 00:56:23;;;;;;;1.15;0.90;;;;;;;28.33;37.73;99562.28;5105476;28;20499;-57
2022/07/14 00:58:48;;;;;;;1.30;0.90;;;;;;;28.30;37.69;99560.34;5089522;28;20071;-63
2022/07/14 01:01:17;;;;;;;1.50;0.95;;;;;;;28.31;37.89;99558.31;5101464;28;20415;-57
2022/07/14 01:03:43;;;;;;;1.55;1.10;;;;;;;28.29;37.93;99557.91;5096926;28;20043;-63
2022/07/14 01:06:08;;;;;;;1.30;0.88;;;;;;;28.28;37.99;99554.28;5099642;28;20039;-63
2022/07/14 01:08:33;;;;;;;1.25;0.93;;;;;;;28.25;37.71;99550.31;5097027;28;20056;-63
2022/07/14 01:10:59;;;;;;;1.33;0.90;;;;;;;28.30;38.23;99553.88;5103248;28;20120;-63
2022/07/14 01:13:24;;;;;;;1.40;1.10;;;;;;;28.26;38.10;99551.09;5100577;28;20396;-63
2022/07/14 01:15:50;;;;;;;1.50;1.10;;;;;;;28.27;38.13;99547.06;5106697;28;20056;-63
2022/07/14 01:18:15;;;;;;;3.03;1.20;;;;;;;28.29;38.01;99543.81;5097705;28;20101;-63
2022/07/14 01:20:41;;;;;;;1.63;1.10;;;;;;;28.29;38.09;99550.28;5089993;28;20048;-57
2022/07/14 01:23:08;;;;;;;1.65;1.10;;;;;;;28.26;38.09;99548.28;5093926;28;20063;-64
2022/07/14 01:25:34;;;;;;;1.73;1.20;;;;;;;28.26;38.21;99548.28;5088912;28;20504;-57
2022/07/14 01:28:00;;;;;;;1.60;1.10;;;;;;;28.27;38.31;99551.91;5091271;28;20036;-57
2022/07/14 01:30:26;;;;;;;1.70;1.10;;;;;;;28.25;38.13;99549.50;5096038;28;20103;-59
2022/07/14 01:32:52;;;;;;;1.55;1.02;;;;;;;28.24;38.19;99542.31;5091392;28;20087;-57
2022/07/14 01:35:17;;;;;;;1.77;1.20;;;;;;;28.23;38.27;99544.31;5091635;28;20055;-64
2022/07/14 01:37:43;;;;;;;1.50;1.10;;;;;;;28.24;38.02;99536.69;5088948;28;20510;-64
2022/07/14 01:40:10;;;;;;;1.55;1.08;;;;;;;28.25;38.30;99536.25;5089369;28;20051;-58
2022/07/14 01:42:35;;;;;;;1.70;1.10;;;;;;;28.23;38.29;99530.25;5092101;28;20466;-57
2022/07/14 01:45:01;;;;;;;1.50;1.00;;;;;;;28.22;38.30;99531.47;5090080;28;20052;-58
2022/07/14 01:47:27;;;;;;;1.73;1.17;;;;;;;28.22;38.24;99527.88;5089598;28;20507;-58
2022/07/14 01:49:52;;;;;;;1.48;1.05;;;;;;;28.23;38.40;99530.25;5101850;28;20104;-64
2022/07/14 01:52:18;;;;;;;1.15;0.90;;;;;;;28.25;38.23;99524.19;5098381;28;20052;-58
2022/07/14 01:54:43;;;;;;;1.75;1.10;;;;;;;28.22;38.36;99517.41;5099546;28;20036;-64
2022/07/14 01:57:09;;;;;;;1.75;1.15;;;;;;;28.21;38.24;99527.06;5090574;28;20143;-57
2022/07/14 01:59:36;;;;;;;1.83;0.95;;;;;;;28.21;38.45;99515.00;5090826;28;20086;-58
2022/07/14 02:02:01;;;;;;;1.38;1.08;;;;;;;28.21;38.48;99517.81;5095556;28;20336;-64
2022/07/14 02:04:27;;;;;;;1.73;1.20;;;;;;;28.20;38.65;99519.84;5105381;28;20046;-57
2022/07/14 02:06:54;;;;;;;2.35;1.10;;;;;;;28.18;38.65;99524.31;5091927;28;20047;-64
2022/07/14 02:09:20;;;;;;;1.73;1.10;;;;;;;28.20;38.52;99524.66;5096942;28;20051;-64
2022/07/14 02:14:31;;;;;;;1.75;1.10;;;;;;;28.20;38.67;99524.66;5100198;28;20043;-64
2022/07/14 02:16:57;;;;;;;1.42;1.00;;;;;;;28.18;38.68;99527.13;5106762;28;20048;-64
2022/07/14 02:19:24;;;;;;;1.55;1.10;;;;;;;28.19;38.76;99531.50;5102366;28;20414;-58
2022/07/14 02:21:51;;;;;;;1.63;1.08;;;;;;;28.18;38.71;99524.31;5081279;28;20041;-57
2022/07/14 02:24:18;;;;;;;1.65;1.05;;;;;;;28.19;38.69;99523.88;5088438;28;20055;-58
2022/07/14 02:26:44;;;;;;;1.33;0.90;;;;;;;28.22;38.57;99530.69;5091931;28;20054;-63
2022/07/14 02:29:10;;;;;;;1.55;1.02;;;;;;;28.21;38.69;99523.44;5104727;28;20126;-64
2022/07/14 02:31:36;;;;;;;1.50;1.00;;;;;;;28.24;38.66;99539.50;5098452;28;20042;-64
2022/07/14 02:34:02;;;;;;;1.45;0.90;;;;;;;28.21;38.79;99537.50;5103826;28;20456;-57
2022/07/14 02:36:29;;;;;;;1.42;1.00;;;;;;;28.19;38.83;99531.50;5094733;28;20044;-57
2022/07/14 02:38:55;;;;;;;1.48;1.00;;;;;;;28.19;38.75;99534.31;5099354;28;20048;-57
2022/07/14 02:41:21;;;;;;;1.50;0.85;;;;;;;28.16;38.74;99541.59;5098489;28;20044;-57
2022/07/14 02:43:47;;;;;;;1.20;0.90;;;;;;;28.18;38.60;99544.78;5106807;28;20054;-57
2022/07/14 02:46:12;;;;;;;1.40;1.00;;;;;;;28.16;38.70;99544.41;5091039;28;20036;-64
2022/07/14 02:48:38;;;;;;;1.60;1.05;;;;;;;28.12;38.70;99535.22;5095521;28;20043;-64
2022/07/14 02:51:07;;;;;;;1.30;0.90;;;;;;;28.15;38.77;99539.22;5108402;28;20044;-58
2022/07/14 02:53:34;;;;;;;1.65;1.17;;;;;;;28.15;38.80;99539.22;5102387;28;20056;-64
2022/07/14 02:56:00;;;;;;;1.75;1.17;;;;;;;28.15;38.86;99544.84;5098472;28;20146;-57
2022/07/14 02:58:26;;;;;;;1.70;1.00;;;;;;;28.14;38.86;99549.66;5090477;28;20526;-63
2022/07/14 03:00:52;;;;;;;1.63;0.90;;;;;;;28.14;38.79;99549.66;5095503;28;20044;-63
2022/07/14 03:03:17;;;;;;;1.30;0.90;;;;;;;28.15;38.98;99542.03;5096110;28;20093;-58
2022/07/14 03:05:43;;;;;;;1.30;0.93;;;;;;;28.12;38.87;99540.84;5102552;28;20534;-63
2022/07/14 03:08:09;;;;;;;1.45;1.00;;;;;;;28.16;38.82;99549.25;5088989;28;20071;-64
2022/07/14 03:10:36;;;;;;;1.48;0.90;;;;;;;28.14;38.78;99551.66;5088631;28;20032;-63
2022/07/14 03:13:03;;;;;;;1.70;1.10;;;;;;;28.12;38.81;99552.09;5088159;28;20044;-57
2022/07/14 03:15:28;;;;;;;1.30;0.95;;;;;;;28.12;38.77;99556.91;5100868;28;20109;-58
2022/07/14 03:17:54;;;;;;;1.27;0.90;;;;;;;28.12;38.95;99551.31;5100222;28;20616;-57
2022/07/14 03:20:19;;;;;;;1.20;0.85;;;;;;;28.12;38.87;99556.91;5095452;28;20416;-64
2022/07/14 03:22:45;;;;;;;1.55;1.00;;;;;;;28.12;38.71;99562.53;5107779;28;20498;-57
2022/07/14 03:25:12;;;;;;;1.15;0.77;;;;;;;28.11;38.79;99553.31;5091231;28;20052;-58
2022/07/14 03:27:38;;;;;;;1.27;0.90;;;;;;;28.11;38.86;99561.75;5087347;28;20052;-59
2022/07/14 03:30:08;;;;;;;1.20;0.85;;;;;;;28.11;38.78;99555.34;5086406;28;20103;-57
2022/07/14 03:32:34;;;;;;;1.10;0.80;;;;;;;28.14;38.83;99554.47;5094133;28;20547;-63
2022/07/14 03:35:03;;;;;;;1.30;0.93;;;;;;;28.12;38.65;99548.47;5102275;28;20047;-63
2022/07/14 03:37:28;;;;;;;1.55;1.02;;;;;;;28.09;38.87;99552.94;5097300;28;20097;-63
2022/07/14 03:39:54;;;;;;;1.70;0.90;;;;;;;28.12;38.89;99560.53;5090787;28;20579;-57
2022/07/14 03:42:19;;;;;;;1.40;0.93;;;;;;;28.11;38.93;99560.97;5081589;28;20086;-58
2022/07/14 03:44:45;;;;;;;1.65;1.10;;;;;;;28.10;38.98;99553.75;5093118;28;20040;-64
2022/07/14 03:47:10;;;;;;;1.30;0.90;;;;;;;28.10;38.96;99557.34;5095116;28;20504;-64
2022/07/14 03:49:36;;;;;;;1.10;0.80;;;;;;;28.10;39.02;99546.09;5096560;28;20052;-63
2022/07/14 03:52:01;;;;;;;1.33;0.95;;;;;;;28.08;39.02;99548.53;5100094;28;20039;-57
2022/07/14 03:54:26;;;;;;;1.20;0.82;;;;;;;28.10;38.87;99554.53;5107449;28;20052;-57
2022/07/14 03:56:52;;;;;;;0.95;0.80;;;;;;;28.08;38.86;99556.97;5103713;28;20503;-63
2022/07/14 03:59:18;;;;;;;1.63;1.08;;;;;;;28.10;38.96;99553.75;5094335;28;20119;-57
2022/07/14 04:01:43;;;;;;;1.45;1.00;;;;;;;28.09;38.73;99547.31;5104299;28;20044;-58
2022/07/14 04:04:08;;;;;;;1.17;0.90;;;;;;;28.07;38.85;99541.31;5105405;28;20147;-58
2022/07/14 04:06:34;;;;;;;1.60;1.00;;;;;;;28.08;38.97;99547.75;5091161;28;20044;-63
2022/07/14 04:09:00;;;;;;;1.17;0.90;;;;;;;28.10;38.87;99550.94;5094764;28;20070;-58
2022/07/14 04:11:26;;;;;;;1.58;1.02;;;;;;;28.08;38.88;99545.72;5102168;28;20047;-64
2022/07/14 04:13:51;;;;;;;1.38;0.90;;;;;;;28.07;38.95;99549.75;5095265;28;20093;-64
2022/07/14 04:16:17;;;;;;;1.52;0.90;;;;;;;28.09;38.87;99544.50;5102550;28;20055;-63
2022/07/14 04:18:42;;;;;;;1.45;1.05;;;;;;;28.11;38.86;99546.91;5092265;28;20040;-63
2022/07/14 04:21:11;;;;;;;1.27;0.90;;;;;;;28.07;38.84;99540.50;5092286;28;20076;-57
2022/07/14 04:23:37;;;;;;;1.20;0.90;;;;;;;28.11;38.85;99549.72;5093203;28;20466;-57
2022/07/14 04:26:03;;;;;;;1.30;0.90;;;;;;;28.09;38.95;99550.13;5097675;28;20050;-58
2022/07/14 04:28:29;;;;;;;1.20;0.95;;;;;;;28.08;38.81;99550.56;5095347;28;20416;-59
2022/07/14 04:30:55;;;;;;;1.23;0.90;;;;;;;28.07;38.98;99554.56;5093464;28;20039;-64
2022/07/14 04:33:21;;;;;;;1.63;0.90;;;;;;;28.09;39.02;99552.16;5092292;28;20040;-64
2022/07/14 04:35:47;;;;;;;1.25;0.82;;;;;;;28.08;38.99;99550.56;5099913;28;20463;-64
2022/07/14 04:38:12;;;;;;;1.30;0.90;;;;;;;28.12;38.93;99551.31;5093648;28;20547;-64
2022/07/14 04:40:38;;;;;;;1.05;0.80;;;;;;;28.11;39.06;99555.34;5090484;28;20047;-57
2022/07/14 04:43:04;;;;;;;1.30;0.90;;;;;;;28.10;39.03;99553.75;5103579;28;20055;-64
2022/07/14 04:45:29;;;;;;;1.10;0.90;;;;;;;28.10;39.11;99556.56;5099722;28;20089;-58
2022/07/14 04:47:54;;;;;;;1.00;0.75;;;;;;;28.07;39.08;99552.56;5097184;28;20131;-63
2022/07/14 04:53:04;;;;;;;1.40;1.00;;;;;;;28.08;39.17;99556.97;5090902;28;20082;-64
2022/07/14 04:55:29;;;;;;;1.20;0.80;;;;;;;28.10;39.26;99565.00;5096627;28;20130;-64
2022/07/14 04:57:55;;;;;;;1.15;0.88;;;;;;;28.10;39.36;99565.00;5104574;28;20046;-65
2022/07/14 05:00:20;;;;;;;1.38;0.95;;;;;;;28.10;39.22;99559.38;5091648;28;20277;-64
2022/07/14 05:02:46;;;;;;;1.20;0.90;;;;;;;28.10;39.26;99565.00;5091198;28;20071;-64
2022/07/14 05:05:11;;;;;;;1.10;0.90;;;;;;;28.09;39.42;99552.16;5104358;28;20035;-64
2022/07/14 05:07:37;;;;;;;0.90;0.75;;;;;;;28.09;39.38;99554.97;5090548;28;20085;-59
2022/07/14 05:10:04;;;;;;;1.42;0.98;;;;;;;28.08;39.39;99556.19;5099752;28;20041;-58
2022/07/14 05:12:29;;;;;;;1.40;0.98;;;;;;;28.10;39.45;99560.16;5090283;28;20118;-64
2022/07/14 05:14:55;;;;;;;1.50;0.95;;;;;;;28.11;39.51;99567.38;5093091;28;20126;-64
2022/07/14 05:17:20;;;;;;;1.02;0.85;;;;;;;28.14;39.53;99569.34;5091236;28;20130;-64
2022/07/14 05:19:46;;;;;;;1.20;0.88;;;;;;;28.13;39.62;99570.56;5092875;28;20175;-64
2022/07/14 05:22:12;;;;;;;1.20;0.90;;;;;;;28.14;39.51;99571.34;5089906;28;20060;-64
2022/07/14 05:24:37;;;;;;;1.33;0.93;;;;;;;28.14;39.61;99560.09;5098193;28;20047;-58
2022/07/14 05:27:03;;;;;;;1.27;0.90;;;;;;;28.14;39.64;99562.91;5094793;28;20040;-58
2022/07/14 05:29:29;;;;;;;1.30;0.90;;;;;;;28.16;39.61;99574.56;5095977;28;20127;-64
2022/07/14 05:31:57;;;;;;;1.23;0.93;;;;;;;28.16;39.55;99568.94;5096591;28;20052;-64
2022/07/14 05:34:22;;;;;;;1.48;1.10;;;;;;;28.14;39.50;99562.91;5102863;28;20062;-64
2022/07/14 05:36:48;;;;;;;1.50;1.00;;;;;;;28.14;39.66;99571.34;5089282;28;20499;-64
2022/07/14 05:39:13;;;;;;;1.38;0.90;;;;;;;28.16;39.87;99574.56;5095654;28;20044;-58
2022/07/14 05:41:39;;;;;;;1.58;1.08;;;;;;;28.17;39.84;99567.72;5103089;28;20499;-58
2022/07/14 05:44:05;;;;;;;1.10;0.77;;;;;;;28.16;39.85;99578.16;5095016;28;20447;-57
2022/07/14 05:46:30;;;;;;;1.50;1.00;;;;;;;28.18;40.00;99577.75;5096270;28;20549;-64
2022/07/14 05:48:56;;;;;;;1.50;1.10;;;;;;;28.16;40.13;99574.56;5094802;28;20062;-57
2022/07/14 05:51:22;;;;;;;1.45;1.10;;;;;;;28.20;40.02;99575.28;5093203;28;20102;-58
2022/07/14 05:53:48;;;;;;;1.55;1.10;;;;;;;28.20;40.17;99581.72;5091988;28;20068;-64
2022/07/14 05:56:17;;;;;;;1.60;1.10;;;;;;;28.20;40.25;99569.66;5094288;28;20090;-58
2022/07/14 05:58:44;;;;;;;1.48;1.00;;;;;;;28.20;40.34;99572.47;5101968;28;20483;-59
2022/07/14 06:01:09;;;;;;;1.25;0.95;;;;;;;28.21;40.14;99572.06;5095889;28;20039;-58
2022/07/14 06:03:35;;;;;;;1.58;1.20;;;;;;;28.26;40.29;99584.88;5102591;28;20392;-64
2022/07/14 06:06:03;;;;;;;1.45;1.00;;;;;;;28.21;40.66;99574.06;5089415;28;20617;-58
2022/07/14 06:08:28;;;;;;;1.70;1.20;;;;;;;28.08;41.10;99581.50;5090620;28;20052;-64
2022/07/14 06:10:58;;;;;;;1.67;1.20;;;;;;;28.05;41.21;99582.31;5088727;28;20105;-58
2022/07/14 06:13:27;;;;;;;1.67;1.05;;;;;;;27.96;41.34;99574.41;5102459;28;20044;-64
2022/07/14 06:15:54;;;;;;;1.40;1.00;;;;;;;28.01;41.47;99584.41;5092388;28;20052;-58
2022/07/14 06:18:20;;;;;;;1.52;1.10;;;;;;;27.98;41.53;99572.75;5090728;28;20411;-58
2022/07/14 06:20:45;;;;;;;1.45;1.00;;;;;;;28.00;41.51;99574.34;5098886;28;20527;-58
2022/07/14 06:23:11;;;;;;;1.70;1.20;;;;;;;28.04;41.49;99575.09;5094645;28;20048;-63
2022/07/14 06:25:40;;;;;;;1.55;1.00;;;;;;;27.96;41.73;99563.94;5097672;28;20052;-64
2022/07/14 06:28:06;;;;;;;1.80;1.30;;;;;;;28.02;41.67;99572.72;5093718;28;20050;-58
2022/07/14 06:30:32;;;;;;;1.23;1.00;;;;;;;28.04;41.58;99572.28;5098896;28;20063;-59
2022/07/14 06:32:58;;;;;;;1.77;1.23;;;;;;;28.03;41.77;99565.09;5097773;28;20032;-59
2022/07/14 06:35:26;;;;;;;1.55;1.08;;;;;;;28.03;41.89;99567.91;5095046;28;20172;-58
2022/07/14 06:37:52;;;;;;;1.50;1.00;;;;;;;28.03;41.75;99562.28;5092816;28;20029;-64
2022/07/14 06:40:18;;;;;;;1.52;1.02;;;;;;;28.02;41.69;99564.28;5088197;28;20126;-58
2022/07/14 06:42:44;;;;;;;1.70;1.20;;;;;;;28.02;41.76;99560.69;5087589;28;20119;-64
2022/07/14 06:45:10;;;;;;;1.75;1.10;;;;;;;28.02;41.73;99561.47;5087184;28;20487;-64
2022/07/14 06:47:36;;;;;;;1.50;1.08;;;;;;;28.04;41.88;99566.66;5090762;28;20088;-58
2022/07/14 06:50:03;;;;;;;1.35;1.00;;;;;;;28.06;41.95;99559.41;5095475;28;20032;-64
2022/07/14 06:52:29;;;;;;;1.52;1.10;;;;;;;28.08;41.85;99570.25;5091288;28;20094;-64
2022/07/14 06:54:58;;;;;;;1.40;1.05;;;;;;;28.05;41.79;99554.19;5091719;28;20083;-64
2022/07/14 06:57:23;;;;;;;1.40;0.90;;;;;;;28.05;41.80;99560.63;5102953;28;20047;-57
2022/07/14 06:59:48;;;;;;;1.42;0.95;;;;;;;28.07;41.80;99561.00;5096832;28;20036;-64
2022/07/14 07:02:14;;;;;;;1.42;1.00;;;;;;;28.02;41.75;99561.47;5087362;28;20127;-64
2022/07/14 07:04:40;;;;;;;1.52;1.10;;;;;;;28.03;41.68;99556.66;5098724;28;20044;-64
2022/07/14 07:07:05;;;;;;;1.40;1.00;;;;;;;28.09;41.64;99566.22;5093692;28;20127;-64
2022/07/14 07:09:31;;;;;;;1.33;1.00;;;;;;;28.11;41.54;99560.97;5100023;28;20031;-64
2022/07/14 07:11:56;;;;;;;1.38;1.10;;;;;;;28.12;41.53;99563.34;5087245;28;20040;-64
2022/07/14 07:14:22;;;;;;;1.60;1.10;;;;;;;28.07;41.62;99557.38;5101330;28;20130;-58
2022/07/14 07:16:49;;;;;;;1.65;1.20;;;;;;;28.09;41.41;99552.94;5093591;28;20475;-58
2022/07/14 07:19:16;;;;;;;1.30;0.98;;;;;;;28.12;41.67;99554.09;5094152;28;20048;-62
2022/07/14 07:21:42;;;;;;;1.40;1.15;;;;;;;28.12;41.61;99557.72;5090919;28;20131;-57
2022/07/14 07:24:09;;;;;;;1.52;1.10;;;;;;;28.13;41.46;99553.69;5095728;28;20136;-62
2022/07/14 07:26:38;;;;;;;0.98;0.85;;;;;;;28.10;41.79;99548.13;5109363;28;20118;-57
2022/07/14 07:29:04;;;;;;;1.40;1.02;;;;;;;28.10;41.70;99543.28;5102125;28;20466;-62
2022/07/14 07:31:32;;;;;;;1.48;1.00;;;;;;;28.10;41.69;99543.28;5091888;28;20067;-62
2022/07/14 07:33:58;;;;;;;1.60;1.10;;;;;;;28.11;41.79;99544.09;5090318;28;20722;-63
2022/07/14 07:36:24;;;;;;;1.48;1.02;;;;;;;28.13;41.63;99538.81;5106768;28;20044;-63
2022/07/14 07:38:50;;;;;;;1.60;1.10;;;;;;;28.16;41.63;99535.19;5099226;28;20032;-62
2022/07/14 07:41:15;;;;;;;1.45;1.00;;;;;;;28.17;41.20;99537.56;5099585;28;20058;-57
2022/07/14 07:43:41;;;;;;;1.83;1.05;;;;;;;28.15;41.41;99528.75;5098909;28;20044;-62
2022/07/14 07:46:07;;;;;;;1.48;0.90;;;;;;;28.19;41.48;99528.69;5099630;28;20097;-56
2022/07/14 07:48:33;;;;;;;1.98;1.30;;;;;;;28.19;41.36;99531.50;5100929;28;20070;-62
2022/07/14 07:50:59;;;;;;;1.42;0.90;;;;;;;28.16;41.52;99530.34;5093021;28;20108;-57
2022/07/14 07:53:24;;;;;;;1.70;1.10;;;;;;;28.16;41.48;99515.50;5098120;28;20148;-56
2022/07/14 07:55:51;;;;;;;1.38;1.00;;;;;;;28.20;41.18;99519.03;5101316;28;20504;-56
2022/07/14 07:58:17;;;;;;;1.17;0.90;;;;;;;28.20;41.38;99524.66;5096546;28;20043;-62
2022/07/14 08:00:43;;;;;;;1.70;1.20;;;;;;;28.20;41.31;99519.84;5093892;28;20420;-56
2022/07/14 08:03:08;;;;;;;1.45;1.10;;;;;;;28.20;41.28;99519.03;5093825;28;20028;-56
2022/07/14 08:05:34;;;;;;;1.33;0.90;;;;;;;28.23;41.24;99512.59;5096634;28;20519;-56
2022/07/14 08:08:00;;;;;;;1.35;1.00;;;;;;;28.22;41.07;99505.38;5107926;28;20521;-63
2022/07/14 08:10:25;;;;;;;1.45;1.00;;;;;;;28.20;41.02;99504.97;5093696;28;20480;-62
2022/07/14 08:12:51;;;;;;;1.45;1.10;;;;;;;28.23;41.04;99506.97;5092156;28;20047;-62
2022/07/14 08:15:17;;;;;;;1.92;1.15;;;;;;;28.22;40.94;99500.53;5100456;28;20031;-56
2022/07/14 08:17:43;;;;;;;1.65;1.10;;;;;;;28.23;40.75;99488.06;5096670;28;20551;-62
2022/07/14 08:20:09;;;;;;;1.17;0.80;;;;;;;28.26;40.59;99494.84;5098638;28;20086;-56
2022/07/14 08:22:36;;;;;;;1.67;1.20;;;;;;;28.24;40.78;99500.91;5097573;28;20531;-62
2022/07/14 08:25:04;;;;;;;1.65;1.20;;;;;;;28.25;40.42;99498.88;5094945;28;20055;-56
2022/07/14 08:27:30;;;;;;;1.70;1.20;;;;;;;28.24;40.47;99497.28;5105016;28;20044;-56
2022/07/14 08:29:55;;;;;;;2.13;1.30;;;;;;;28.23;40.65;99490.88;5098391;28;20075;-62
2022/07/14 08:32:38;;;;;;;1.88;1.30;;;;;;;28.24;40.44;99491.66;5107646;28;20036;-56
2022/07/14 08:35:08;;;;;;;1.70;1.27;;;;;;;28.25;40.45;99491.25;5098893;28;20079;-57
2022/07/14 08:37:34;;;;;;;1.63;1.10;;;;;;;28.26;40.41;99477.97;5091613;28;20048;-62
2022/07/14 08:40:00;;;;;;;1.58;1.15;;;;;;;28.24;40.41;99483.22;5105471;28;20379;-62
2022/07/14 08:42:28;;;;;;;1.73;1.20;;;;;;;28.24;40.42;99486.03;5093448;28;20101;-62
2022/07/14 08:44:54;;;;;;;1.55;1.05;;;;;;;28.25;40.33;99487.63;5092658;28;20496;-57
2022/07/14 08:47:20;;;;;;;1.60;1.00;;;;;;;28.24;40.06;99475.59;5102415;28;20039;-57
2022/07/14 08:49:46;;;;;;;1.73;1.10;;;;;;;28.27;40.01;99475.94;5095998;28;20100;-57
2022/07/14 08:52:11;;;;;;;1.63;1.20;;;;;;;28.25;39.90;99482.00;5091836;28;20131;-62
2022/07/14 08:54:38;;;;;;;1.55;1.10;;;;;;;28.27;39.73;99473.94;5093250;28;20078;-62
2022/07/14 08:57:04;;;;;;;1.42;1.08;;;;;;;28.26;39.80;99477.97;5090443;28;20048;-57
2022/07/14 08:59:29;;;;;;;1.88;1.30;;;;;;;28.29;40.12;99467.88;5093631;28;20043;-63
2022/07/14 09:01:57;;;;;;;1.70;1.20;;;;;;;28.25;39.98;99471.56;5109895;28;20461;-56
2022/07/14 09:04:22;;;;;;;1.63;1.00;;;;;;;28.25;39.83;99465.13;5095018;28;20040;-62
2022/07/14 09:06:53;;;;;;;1.60;1.10;;;;;;;28.27;39.95;99467.50;5098923;28;20572;-57
2022/07/14 09:09:24;;;;;;;1.90;1.20;;;;;;;28.26;39.80;99461.09;5104286;28;20441;-62
2022/07/14 09:12:04;;;;;;;1.27;0.95;;;;;;;28.27;39.63;99465.50;5100022;28;20135;-56
2022/07/14 09:17:17;;;;;;;1.58;1.10;;;;;;;28.29;39.50;99437.75;5096215;28;20109;-62
2022/07/14 09:20:08;;;;;;;1.20;1.00;;;;;;;28.31;39.39;99449.41;5107615;28;20099;-57
2022/07/14 09:22:43;;;;;;;1.25;1.00;;;;;;;28.33;39.24;99444.13;5094887;28;20091;-62
2022/07/14 09:25:13;;;;;;;1.80;1.02;;;;;;;28.36;39.36;99442.47;5106398;28;20571;-62
2022/07/14 09:27:39;;;;;;;1.60;1.10;;;;;;;28.33;39.19;99440.53;5094986;28;20048;-62
2022/07/14 09:30:06;;;;;;;1.90;1.25;;;;;;;28.30;39.07;99430.09;5092179;28;20044;-62
2022/07/14 09:32:45;;;;;;;1.60;1.00;;;;;;;28.33;39.30;99426.47;5103841;28;20047;-62
2022/07/14 09:35:12;;;;;;;1.58;1.10;;;;;;;28.33;39.24;99430.06;5097523;28;20036;-62
2022/07/14 09:37:42;;;;;;;1.00;0.82;;;;;;;28.37;39.35;99428.00;5088609;28;20052;-63
2022/07/14 09:40:15;;;;;;;1.40;1.00;;;;;;;28.38;39.09;99426.78;5091334;28;20040;-62
2022/07/14 09:43:03;;;;;;;1.48;1.00;;;;;;;28.37;39.22;99424.41;5099967;28;20464;-57
2022/07/14 09:45:36;;;;;;;1.55;1.10;;;;;;;28.33;39.12;99416.00;5102893;28;20043;-57
2022/07/14 09:48:11;;;;;;;1.60;1.13;;;;;;;28.38;39.13;99420.38;5094476;28;20051;-62
2022/07/14 09:50:39;;;;;;;1.40;1.05;;;;;;;28.37;39.24;99411.13;5090192;28;20044;-56
2022/07/14 09:53:27;;;;;;;1.70;1.00;;;;;;;28.34;39.25;99417.59;5096082;28;20039;-56
2022/07/14 09:56:07;;;;;;;1.58;1.10;;;;;;;28.33;39.35;99410.38;5094611;28;20127;-56
2022/07/14 09:58:51;;;;;;;1.88;1.00;;;;;;;28.36;39.28;99409.53;5089514;28;20048;-62
2022/07/14 10:01:21;;;;;;;1.90;1.23;;;;;;;28.41;39.26;99409.03;5093078;28;20044;-62
2022/07/14 10:03:48;;;;;;;2.10;1.27;;;;;;;28.41;39.39;99406.22;5089441;28;20055;-62
2022/07/14 10:06:15;;;;;;;1.52;1.08;;;;;;;28.38;39.40;99404.28;5094485;28;20105;-62
2022/07/14 10:08:45;;;;;;;1.50;1.10;;;;;;;28.41;39.30;99394.97;5102265;28;20042;-62
2022/07/14 10:11:12;;;;;;;1.70;1.25;;;;;;;28.43;39.28;99389.72;5091174;28;20035;-59
2022/07/14 10:13:38;;;;;;;1.90;1.20;;;;;;;28.44;39.21;99391.31;5105093;28;20044;-62
2022/07/14 10:16:05;;;;;;;1.80;1.20;;;;;;;28.46;39.27;99386.03;5101078;28;20120;-62
2022/07/14 10:18:32;;;;;;;1.75;1.17;;;;;;;28.46;39.25;99376.81;5089140;28;20047;-57
2022/07/14 10:20:59;;;;;;;1.55;1.13;;;;;;;28.46;39.13;99374.78;5091131;28;20557;-63
2022/07/14 10:23:26;;;;;;;1.65;1.15;;;;;;;28.46;39.14;99379.63;5109391;28;20564;-62
2022/07/14 10:25:54;;;;;;;1.58;1.08;;;;;;;28.48;39.04;99374.34;5090848;28;20077;-56
2022/07/14 10:28:20;;;;;;;1.40;1.08;;;;;;;28.49;38.87;99365.47;5109622;28;20449;-62
2022/07/14 10:31:23;;;;;;;1.90;1.08;;;;;;;28.46;39.04;99360.72;5109357;28;20061;-62
2022/07/14 10:34:21;;;;;;;1.88;1.40;;;;;;;28.48;38.83;99349.81;5099494;28;20079;-62
2022/07/14 10:37:12;;;;;;;1.40;1.10;;;;;;;28.48;38.88;99344.19;5095706;28;20035;-62
2022/07/14 10:39:55;;;;;;;1.60;1.10;;;;;;;28.50;38.86;99353.03;5108718;28;20047;-57
2022/07/14 10:42:43;;;;;;;1.40;1.00;;;;;;;28.46;38.77;99340.22;5109563;28;20067;-57
2022/07/14 10:45:09;;;;;;;1.50;1.02;;;;;;;28.47;38.59;99341.81;5105715;28;20046;-56
2022/07/14 10:47:48;;;;;;;1.52;1.00;;;;;;;28.48;38.69;99334.97;5109266;28;20443;-57
2022/07/14 10:50:19;;;;;;;1.40;0.98;;;;;;;28.49;38.52;99334.53;5107046;28;20058;-57
2022/07/14 10:53:04;;;;;;;1.17;0.90;;;;;;;28.52;38.48;99336.50;5104751;28;20043;-63
2022/07/14 10:55:29;;;;;;;1.52;0.98;;;;;;;28.55;38.30;99343.28;5099079;28;20044;-57
2022/07/14 10:58:07;;;;;;;1.13;0.90;;;;;;;28.54;38.43;99332.47;5112963;28;20093;-62
2022/07/14 11:00:41;;;;;;;1.63;1.02;;;;;;;28.54;38.34;99327.63;5098908;28;20036;-56
2022/07/14 11:03:26;;;;;;;1.13;0.90;;;;;;;28.52;38.26;99321.63;5112788;28;20036;-62
2022/07/14 11:06:03;;;;;;;1.05;0.90;;;;;;;28.56;38.25;99322.34;5096325;28;20039;-57
2022/07/14 11:08:30;;;;;;;1.30;0.95;;;;;;;28.54;38.34;99324.00;5096339;28;20059;-56
2022/07/14 11:10:57;;;;;;;1.35;0.90;;;;;;;28.52;38.27;99319.63;5094218;28;20036;-57
2022/07/14 11:13:23;;;;;;;1.77;1.10;;;;;;;28.50;38.26;99312.81;5095176;28;20052;-56
2022/07/14 11:16:02;;;;;;;1.20;0.98;;;;;;;28.52;38.19;99322.44;5108708;28;20055;-56
2022/07/14 11:18:34;;;;;;;1.35;0.90;;;;;;;28.53;38.17;99309.16;5112654;28;20055;-57
2022/07/14 11:21:13;;;;;;;;;;;;;;;28.60;38.05;99309.03;5111861;28;20054;-62
2022/07/14 11:23:51;;;;;;;1.45;1.00;;;;;;;28.57;38.21;99306.25;5101850;28;20379;-62
2022/07/14 11:26:31;;;;;;;1.40;0.90;;;;;;;28.52;38.18;99299.91;5092281;28;20139;-56
2022/07/14 11:28:58;;;;;;;1.50;0.98;;;;;;;28.55;38.03;99306.69;5109203;28;20042;-62
2022/07/14 11:31:23;;;;;;;1.27;0.88;;;;;;;28.55;37.87;99297.47;5103639;28;20051;-62
2022/07/14 11:36:38;;;;;;;1.40;0.82;;;;;;;28.60;37.74;99288.53;5100364;28;20063;-56
2022/07/14 11:39:16;;;;;;;1.83;1.15;;;;;;;28.58;37.81;99288.97;5094627;28;20043;-62
2022/07/14 11:41:47;;;;;;;1.20;0.90;;;;;;;28.58;37.83;99279.72;5098546;28;20040;-62
2022/07/14 11:44:43;;;;;;;1.00;0.80;;;;;;;28.57;37.77;99280.94;5091610;28;20503;-57
2022/07/14 11:47:21;;;;;;;1.20;0.90;;;;;;;28.56;37.80;99265.28;5094606;28;20059;-62